createdAt,value
2023-01-12T00:02:38.187Z,52.81
2023-01-12T00:07:43.198Z,52.71
2023-01-12T00:12:46.563Z,52.04
2023-01-12T00:17:50.295Z,52.02
2023-01-12T00:22:55.025Z,52.69
2023-01-12T00:27:58.568Z,52.45
2023-01-12T00:33:01.886Z,51.98
2023-01-12T00:38:07.449Z,51.64
2023-01-12T00:43:28.280Z,52.08
2023-01-12T00:48:32.101Z,51.69
2023-01-12T00:53:36.931Z,52.23
2023-01-12T00:58:40.492Z,52.28
2023-01-12T01:03:43.775Z,51.80
2023-01-12T01:08:48.782Z,51.59
2023-01-12T01:13:52.188Z,52.09
2023-01-12T01:18:55.885Z,51.58
2023-01-12T01:24:01.178Z,51.70
2023-01-12T01:29:04.844Z,51.74
2023-01-12T01:34:08.348Z,52.04
2023-01-12T01:39:14.159Z,52.61
2023-01-12T01:44:54.003Z,52.34
2023-01-12T01:50:00.620Z,52.40
2023-01-12T01:55:10.034Z,52.09
2023-01-12T02:00:14.430Z,51.63
2023-01-12T02:05:22.268Z,51.67
2023-01-12T02:10:27.508Z,51.92
2023-01-12T02:15:54.715Z,52.56
2023-01-12T02:21:12.104Z,52.47
2023-01-12T02:26:51.746Z,52.39
2023-01-12T02:32:07.611Z,52.99
2023-01-12T02:37:19.459Z,52.50
2023-01-12T02:42:42.893Z,52.84
2023-01-12T02:47:53.043Z,52.45
2023-01-12T02:53:02.865Z,52.69
2023-01-12T02:58:08.643Z,52.64
2023-01-12T03:03:16.277Z,52.99
2023-01-12T03:08:24.019Z,52.50
2023-01-12T03:13:30.720Z,52.10
2023-01-12T03:18:39.937Z,51.89
2023-01-12T03:23:47.613Z,52.22
2023-01-12T03:28:56.444Z,52.94
2023-01-12T03:34:02.229Z,53.31
2023-01-12T03:39:16.005Z,53.21
2023-01-12T03:44:24.622Z,52.58
2023-01-12T03:49:36.341Z,52.76
2023-01-12T03:54:42.809Z,53.10
2023-01-12T03:59:46.455Z,53.37
2023-01-12T04:04:51.701Z,52.77
2023-01-12T04:09:55.305Z,52.96
2023-01-12T04:14:59.074Z,52.02
2023-01-12T04:20:04.924Z,52.22
2023-01-12T04:25:09.882Z,52.79
2023-01-12T04:30:14.996Z,53.08
2023-01-12T04:35:19.927Z,52.33
2023-01-12T04:40:23.521Z,52.16
2023-01-12T04:45:26.970Z,52.37
2023-01-12T04:50:32.123Z,52.62
2023-01-12T04:55:38.064Z,52.80
2023-01-12T05:00:41.423Z,53.12
2023-01-12T05:05:46.250Z,53.16
2023-01-12T05:10:51.656Z,52.89
2023-01-12T05:15:55.189Z,52.57
2023-01-12T05:21:00.240Z,52.36
2023-01-12T05:26:04.740Z,52.46
2023-01-12T05:31:09.100Z,52.84
2023-01-12T05:36:15.642Z,53.44
2023-01-12T05:41:19.277Z,53.16
2023-01-12T05:46:24.943Z,53.00
2023-01-12T05:51:31.294Z,53.08
2023-01-12T05:56:34.957Z,52.66
2023-01-12T06:01:38.732Z,52.98
2023-01-12T06:06:43.872Z,53.28
2023-01-12T06:12:10.752Z,53.01
2023-01-12T06:17:14.375Z,52.83
2023-01-12T06:22:19.513Z,52.20
2023-01-12T06:27:23.155Z,52.55
2023-01-12T06:32:26.496Z,52.15
2023-01-12T06:37:31.572Z,51.86
2023-01-12T06:42:37.936Z,52.46
2023-01-12T06:47:48.178Z,51.79
2023-01-12T06:52:53.047Z,50.86
2023-01-12T06:57:56.689Z,47.56
2023-01-12T07:03:00.200Z,44.87
2023-01-12T07:08:05.533Z,42.17
2023-01-12T07:13:08.957Z,43.35
2023-01-12T07:18:12.578Z,41.07
2023-01-12T07:23:17.337Z,39.65
2023-01-12T07:28:20.935Z,37.42
2023-01-12T07:33:24.295Z,36.52
2023-01-12T07:38:30.359Z,35.76
2023-01-12T07:43:33.899Z,34.28
2023-01-12T07:48:37.509Z,34.00
2023-01-12T07:53:42.413Z,31.87
2023-01-12T07:58:45.984Z,31.87
2023-01-12T08:03:49.322Z,31.92
2023-01-12T08:08:55.932Z,29.78
2023-01-12T08:14:01.647Z,30.97
2023-01-12T08:19:10.971Z,29.47
2023-01-12T08:24:18.337Z,28.25
2023-01-12T08:29:30.476Z,29.25
2023-01-12T08:34:35.416Z,29.84
2023-01-12T08:39:40.610Z,29.42
2023-01-12T08:44:44.133Z,29.48
2023-01-12T08:49:48.049Z,30.65
2023-01-12T08:54:52.979Z,33.45
2023-01-12T08:59:56.347Z,35.00
2023-01-12T09:04:59.653Z,36.82
2023-01-12T09:10:07.405Z,37.22
2023-01-12T09:15:11.810Z,38.84
2023-01-12T09:20:15.849Z,40.97
2023-01-12T09:25:20.753Z,40.92
2023-01-12T09:30:24.066Z,43.09
2023-01-12T09:35:27.509Z,44.70
2023-01-12T09:40:32.657Z,44.09
2023-01-12T09:45:53.670Z,43.60
2023-01-12T09:51:07.642Z,43.86
2023-01-12T09:56:19.825Z,46.86
2023-01-12T10:01:29.799Z,47.56
2023-01-12T10:06:34.498Z,48.49
2023-01-12T10:11:47.716Z,48.53
2023-01-12T10:17:05.187Z,47.51
2023-01-12T10:22:37.031Z,47.15
2023-01-12T10:27:45.411Z,48.92
2023-01-12T10:32:48.820Z,48.69
2023-01-12T10:37:55.532Z,49.55
2023-01-12T10:43:22.463Z,49.46
2023-01-12T10:48:27.119Z,50.89
2023-01-12T10:53:32.832Z,49.29
2023-01-12T10:58:37.867Z,49.17
2023-01-12T11:03:42.360Z,49.53
2023-01-12T11:08:45.881Z,50.37
2023-01-12T11:13:54.769Z,51.33
2023-01-12T11:19:14.896Z,50.38
2023-01-12T11:24:35.126Z,50.81
2023-01-12T11:29:46.877Z,51.06
2023-01-12T11:34:58.280Z,51.85
2023-01-12T11:40:07.814Z,51.92
2023-01-12T11:45:19.012Z,52.00
2023-01-12T11:50:27.661Z,51.00
2023-01-12T11:55:45.314Z,51.48
2023-01-12T12:01:02.369Z,52.28
2023-01-12T12:06:23.257Z,51.94
2023-01-12T12:11:36.252Z,52.16
2023-01-12T12:16:49.257Z,52.92
2023-01-12T12:22:01.095Z,52.33
2023-01-12T12:27:14.085Z,52.90
2023-01-12T12:32:32.050Z,52.37
2023-01-12T12:38:05.167Z,52.70
2023-01-12T12:43:34.739Z,52.86
2023-01-12T12:48:50.607Z,53.22
2023-01-12T12:53:56.140Z,53.08
2023-01-12T12:59:01.869Z,53.44
2023-01-12T13:04:09.867Z,53.71
2023-01-12T13:09:39.438Z,53.70
2023-01-12T13:14:44.580Z,53.72
2023-01-12T13:19:53.293Z,53.71
2023-01-12T13:24:57.448Z,54.15
2023-01-12T13:30:23.264Z,55.46
2023-01-12T13:36:05.279Z,55.42
2023-01-12T13:41:38.414Z,54.26
2023-01-12T13:46:47.189Z,54.52
2023-01-12T13:51:58.712Z,55.13
2023-01-12T13:57:04.079Z,55.67
2023-01-12T14:02:19.197Z,56.40
2023-01-12T14:07:36.004Z,56.04
2023-01-12T14:13:20.875Z,55.82
2023-01-12T14:18:26.726Z,55.81
2023-01-12T14:23:34.026Z,55.88
2023-01-12T14:28:38.988Z,56.16
2023-01-12T14:33:48.441Z,57.06
2023-01-12T14:38:54.863Z,56.42
2023-01-12T14:44:15.468Z,56.68
2023-01-12T14:49:22.718Z,55.73
2023-01-12T14:54:29.639Z,55.13
2023-01-12T14:59:35.654Z,55.28
2023-01-12T15:04:39.038Z,55.50
2023-01-12T15:09:54.920Z,56.54
2023-01-12T15:15:17.591Z,55.56
2023-01-12T15:20:43.941Z,54.99
2023-01-12T15:25:48.722Z,55.26
2023-01-12T15:30:53.473Z,55.36
2023-01-12T15:35:56.789Z,55.33
2023-01-12T15:41:01.888Z,54.80
2023-01-12T15:46:05.642Z,54.81
2023-01-12T15:51:11.120Z,55.21
2023-01-12T15:56:16.783Z,55.62
2023-01-12T16:01:21.080Z,54.58
2023-01-12T16:06:30.328Z,54.75
2023-01-12T16:11:35.437Z,54.62
2023-01-12T16:16:39.368Z,54.52
2023-01-12T16:21:43.016Z,55.15
2023-01-12T16:26:48.104Z,54.77
2023-01-12T16:31:52.127Z,55.47
2023-01-12T16:36:55.773Z,54.62
2023-01-12T16:42:03.896Z,54.04
2023-01-12T16:47:08.381Z,54.62
2023-01-12T16:52:15.875Z,55.14
2023-01-12T16:57:21.010Z,54.63
2023-01-12T17:02:24.602Z,54.99
2023-01-12T17:07:29.471Z,54.87
2023-01-12T17:12:35.694Z,54.75
2023-01-12T17:17:39.793Z,55.00
2023-01-12T17:22:43.290Z,54.57
2023-01-12T17:27:48.738Z,54.94
2023-01-12T17:32:52.168Z,55.13
2023-01-12T17:37:55.847Z,54.92
2023-01-12T17:43:08.239Z,54.41
2023-01-12T17:48:13.534Z,55.86
2023-01-12T17:53:18.159Z,55.51
2023-01-12T17:58:22.902Z,56.29
2023-01-12T18:03:26.349Z,54.85
2023-01-12T18:08:29.997Z,55.76
2023-01-12T18:13:36.310Z,55.82
2023-01-12T18:18:42.459Z,55.41
2023-01-12T18:23:46.160Z,55.20
2023-01-12T18:28:51.201Z,55.59
2023-01-12T18:33:59.606Z,54.70
2023-01-12T18:39:04.381Z,55.61
2023-01-12T18:44:10.360Z,55.75
2023-01-12T18:49:13.950Z,55.69
2023-01-12T18:54:17.426Z,56.16
2023-01-12T18:59:22.797Z,56.42
2023-01-12T19:04:37.830Z,55.67
2023-01-12T19:09:41.423Z,56.31
2023-01-12T19:15:03.321Z,56.35
2023-01-12T19:20:14.718Z,56.60
2023-01-12T19:25:37.430Z,56.17
2023-01-12T19:30:42.495Z,55.45
2023-01-12T19:35:47.679Z,56.31
2023-01-12T19:40:53.885Z,56.41
2023-01-12T19:46:02.758Z,55.95
2023-01-12T19:51:10.411Z,56.40
2023-01-12T19:56:14.795Z,56.25
2023-01-12T20:01:23.259Z,56.02
2023-01-12T20:06:26.954Z,55.52
2023-01-12T20:11:30.565Z,56.19
2023-01-12T20:16:35.555Z,56.63
2023-01-12T20:21:39.647Z,55.54
2023-01-12T20:26:43.653Z,56.20
2023-01-12T20:31:50.502Z,56.36
2023-01-12T20:36:54.180Z,56.32
2023-01-12T20:41:57.951Z,57.32
2023-01-12T20:47:03.050Z,56.22
2023-01-12T20:52:06.698Z,56.09
2023-01-12T20:57:11.339Z,56.34
2023-01-12T21:02:18.640Z,56.46
2023-01-12T21:07:22.188Z,56.69
2023-01-12T21:12:27.490Z,57.24
2023-01-12T21:17:32.836Z,56.76
2023-01-12T21:22:36.161Z,56.95
2023-01-12T21:27:39.789Z,57.23
2023-01-12T21:32:44.534Z,57.29
2023-01-12T21:37:48.248Z,57.05
2023-01-12T21:43:09.760Z,57.69
2023-01-12T21:48:16.226Z,57.81
2023-01-12T21:53:21.781Z,57.78
2023-01-12T21:58:25.809Z,57.94
2023-01-12T22:03:30.917Z,58.33
2023-01-12T22:08:36.105Z,57.94
2023-01-12T22:13:41.127Z,58.51
2023-01-12T22:18:49.563Z,58.88
2023-01-12T22:23:53.075Z,58.33
2023-01-12T22:28:56.620Z,58.63
2023-01-12T22:34:04.054Z,58.87
2023-01-12T22:39:07.680Z,58.98
2023-01-12T22:44:11.458Z,58.70
2023-01-12T22:49:16.551Z,59.00
2023-01-12T22:54:20.496Z,58.50
2023-01-12T22:59:23.858Z,58.54
2023-01-12T23:04:28.783Z,58.32
2023-01-12T23:09:32.070Z,58.89
2023-01-12T23:14:35.483Z,58.93
2023-01-12T23:19:40.387Z,59.77
2023-01-12T23:24:43.793Z,59.95
2023-01-12T23:29:48.354Z,60.37
2023-01-12T23:34:53.086Z,59.51
2023-01-12T23:39:56.194Z,61.16
2023-01-12T23:44:59.632Z,60.33
2023-01-12T23:50:04.995Z,59.96
2023-01-12T23:55:09.390Z,59.63
